Weather reports worldwide

Advertisment
Chinchilla/Cenad, Spain (8278): temperature & dewpoint: 10.09.2019 05:00:00 - 16.09.2019 05:00:00 (CEST)Chinchilla/Cenad, Spain (8278): wind speed & gusts: 10.09.2019 05:00:00 - 16.09.2019 05:00:00 (CEST)Chinchilla/Cenad, Spain (8278): wind direction: 10.09.2019 05:00:00 - 16.09.2019 05:00:00 (CEST)Chinchilla/Cenad, Spain (8278): precipitation: 10.09.2019 05:00:00 - 16.09.2019 05:00:00 (CEST)
Date & Time tt [°C] td [°C] ff [km/h] ff [kn] fx [km/h] fx [kn] dd rr [mm]
16.09.2019 05:00:00 - - - - - - - -
16.09.2019 04:00:00 15,8 14,3 11 6 15 8 ESE 0,0
16.09.2019 03:00:00 - - - - - - - -
16.09.2019 02:00:00 15,6 14,1 9 5 15 8 SE -
16.09.2019 01:00:00 15,8 14,3 10 5 20 11 ESE 0,0
16.09.2019 00:00:00 15,8 13,9 13 7 23 12 ESE 0,0
15.09.2019 23:00:00 16,2 14,4 17 9 25 13 ESE 0,0
15.09.2019 22:00:00 16,5 14,1 16 9 27 15 E 0,0
15.09.2019 21:00:00 16,9 13,9 18 10 26 14 ESE 0,0
15.09.2019 20:00:00 18,2 14,5 17 9 31 17 ESE -
15.09.2019 19:00:00 19,5 13,9 20 11 35 19 ESE 0,0
15.09.2019 18:00:00 20,5 14,4 24 13 35 19 ESE 0,0
15.09.2019 17:00:00 20,1 14,2 24 13 34 19 SE 0,0
15.09.2019 16:00:00 20,0 15,3 19 10 34 18 ESE 0,0
15.09.2019 15:00:00 19,9 14,0 24 13 35 19 ESE 0,0
15.09.2019 14:00:00 20,0 14,3 22 12 33 18 ESE -
15.09.2019 13:00:00 20,5 16,7 14 8 26 14 E 0,0
15.09.2019 12:00:00 16,8 14,8 5 3 15 8 E 0,0
15.09.2019 11:00:00 16,5 14,7 4 2 20 11 N 0,0
15.09.2019 10:00:00 16,1 14,4 11 6 26 14 ESE 0,0
15.09.2019 09:00:00 15,8 14,1 14 8 26 14 ESE 0,0
15.09.2019 08:00:00 15,7 14,0 13 7 23 12 ESE -
15.09.2019 07:00:00 15,6 13,8 14 8 26 14 ESE 0,0
15.09.2019 06:00:00 15,6 13,8 16 9 28 15 ESE 0,0
15.09.2019 05:00:00 15,7 13,9 18 10 26 14 ESE 0,0
15.09.2019 04:00:00 15,8 13,9 19 10 32 18 ESE 0,0
15.09.2019 03:00:00 15,7 13,9 18 10 37 20 SE 0,0
15.09.2019 02:00:00 15,4 13,6 22 12 37 20 ESE -
15.09.2019 01:00:00 15,5 13,7 21 12 34 18 ESE 0,0
15.09.2019 00:00:00 15,7 13,9 18 10 37 20 ESE 0,0
14.09.2019 23:00:00 15,8 13,7 22 12 34 19 ESE 0,0
14.09.2019 22:00:00 15,5 12,4 16 9 35 19 ESE 0,0
14.09.2019 21:00:00 15,7 12,6 11 6 24 13 E 0,0
14.09.2019 20:00:00 16,3 13,3 9 5 37 20 E -
14.09.2019 19:00:00 17,0 12,5 21 11 35 19 E 0,0
14.09.2019 18:00:00 17,6 12,1 22 12 37 20 ESE 0,0
14.09.2019 17:00:00 18,6 12,5 28 15 44 24 ESE 0,0
14.09.2019 16:00:00 18,7 11,6 29 16 44 24 ESE 0,0
14.09.2019 15:00:00 20,0 11,8 25 13 44 24 E 0,0
14.09.2019 14:00:00 17,7 11,4 22 12 35 19 ESE -
14.09.2019 13:00:00 16,9 11,0 16 8 32 18 ESE 0,0
14.09.2019 12:00:00 17,5 11,8 20 11 44 24 ESE 0,0
14.09.2019 11:00:00 16,3 11,4 22 12 37 20 ESE 0,0
14.09.2019 10:00:00 15,3 10,9 19 11 31 17 ESE 0,0
14.09.2019 09:00:00 12,7 9,9 5 3 23 12 E 0,0
14.09.2019 08:00:00 12,0 9,6 16 9 27 15 E -
14.09.2019 07:00:00 12,1 9,7 6 3 54 29 W 0,0
14.09.2019 06:00:00 11,8 10,4 29 16 53 28 ESE 0,7
14.09.2019 05:00:00 11,7 10,3 27 15 57 31 E 2,6
14.09.2019 04:00:00 11,9 10,5 20 11 39 21 E 0,1
14.09.2019 03:00:00 11,8 10,4 24 13 42 23 E 4,5
14.09.2019 02:00:00 12,8 11,3 14 8 22 12 ESE -
14.09.2019 01:00:00 12,6 11,3 6 3 22 12 ENE 0,1
14.09.2019 00:00:00 12,9 11,4 10 5 30 16 NE 0,0
13.09.2019 23:00:00 12,8 11,6 11 6 32 17 ENE 0,0
13.09.2019 22:00:00 13,1 11,7 16 8 43 23 E 11,4
13.09.2019 21:00:00 13,9 12,1 19 10 46 25 E 0,7
13.09.2019 20:00:00 14,6 13,2 18 10 47 26 E -
13.09.2019 19:00:00 15,0 13,4 13 7 36 19 E 0,2
13.09.2019 18:00:00 15,6 14,1 13 7 45 24 E 0,1
13.09.2019 17:00:00 15,6 13,9 23 13 41 22 E 3,0
13.09.2019 16:00:00 15,5 12,4 14 7 29 15 NNE 0,0
13.09.2019 15:00:00 17,0 13,2 11 6 31 17 NE 0,1
13.09.2019 14:00:00 13,6 11,7 16 9 37 20 NE -
13.09.2019 13:00:00 12,7 11,4 24 13 41 22 NE 1,9
13.09.2019 12:00:00 11,8 10,4 30 16 48 26 NNE 5,7
13.09.2019 11:00:00 12,7 10,3 4 2 23 12 NNW 0,9
13.09.2019 10:00:00 13,1 9,3 10 5 39 21 S 0,7
13.09.2019 09:00:00 14,1 7,6 17 9 46 25 E 0,0
13.09.2019 08:00:00 13,7 6,8 17 9 46 25 ENE -
13.09.2019 07:00:00 13,4 6,2 15 8 36 19 ENE 0,0
13.09.2019 06:00:00 12,2 9,8 10 5 17 9 NNE 0,0
13.09.2019 05:00:00 12,3 9,6 6 3 10 6 NNE 0,0
13.09.2019 04:00:00 12,7 9,2 2 1 12 6 WSW 0,0
13.09.2019 03:00:00 12,8 8,3 6 3 16 9 NE 0,0
13.09.2019 02:00:00 13,1 8,8 6 3 18 10 NNE -
13.09.2019 01:00:00 13,3 8,8 9 5 19 11 NNE 0,0
13.09.2019 00:00:00 13,5 9,7 2 1 31 17 ESE 0,0
12.09.2019 23:00:00 13,9 7,4 22 12 32 17 SSE 0,0
12.09.2019 22:00:00 13,8 6,8 22 12 39 21 ESE 0,0
12.09.2019 21:00:00 14,6 6,2 13 7 46 25 ENE 0,0
12.09.2019 20:00:00 15,5 7,0 22 12 52 28 ENE -
12.09.2019 19:00:00 16,9 7,8 22 12 64 35 E 0,0
12.09.2019 18:00:00 16,2 8,9 29 16 59 32 ENE 0,0
12.09.2019 17:00:00 15,0 10,2 29 16 59 32 ENE 0,1
12.09.2019 16:00:00 14,6 9,6 18 10 46 25 E 0,0
12.09.2019 15:00:00 16,4 11,8 17 9 46 25 E 0,0
12.09.2019 14:00:00 15,8 13,7 16 8 43 23 E -
12.09.2019 13:00:00 14,0 12,7 18 10 44 24 E 0,2
12.09.2019 12:00:00 13,6 12,6 18 10 43 23 ENE 0,1
12.09.2019 11:00:00 12,7 11,8 21 11 45 24 NE 6,0
12.09.2019 10:00:00 11,7 10,8 15 8 40 22 E 16,3
12.09.2019 09:00:00 12,3 11,3 13 7 43 23 E 7,7
12.09.2019 08:00:00 12,2 11,2 14 8 41 22 ENE -
12.09.2019 07:00:00 12,1 11,1 22 12 43 23 E 8,1
12.09.2019 06:00:00 12,6 11,8 32 17 59 32 ESE 6,7
12.09.2019 05:00:00 12,1 11,3 17 9 39 21 NE 1,8
12.09.2019 04:00:00 10,9 10,2 16 8 37 20 N 1,5
12.09.2019 03:00:00 10,3 9,4 13 7 22 12 N 1,5
12.09.2019 02:00:00 10,8 9,0 13 7 21 11 N -
12.09.2019 01:00:00 10,7 8,7 9 5 21 12 NNE 0,0
12.09.2019 00:00:00 10,4 8,5 7 4 26 14 NNE 0,0
11.09.2019 23:00:00 10,1 8,4 15 8 26 14 NNE 0,0
11.09.2019 22:00:00 10,6 8,1 7 4 19 10 NNE 0,0
11.09.2019 21:00:00 11,7 8,5 10 6 20 11 NNE 0,0
11.09.2019 20:00:00 13,0 8,1 7 4 28 15 NE -
11.09.2019 19:00:00 12,8 7,8 13 7 31 17 NE 0,0
11.09.2019 18:00:00 13,5 8,4 13 7 38 20 ENE 0,0
11.09.2019 17:00:00 14,1 7,8 12 7 38 20 NE 0,0
11.09.2019 16:00:00 14,3 8,0 13 7 35 19 ENE 0,0
11.09.2019 15:00:00 13,3 8,5 21 11 50 27 NE 0,2
11.09.2019 14:00:00 13,5 6,4 14 8 40 22 NE -
11.09.2019 13:00:00 14,4 5,5 24 13 50 27 NE 0,0
11.09.2019 12:00:00 14,2 6,2 19 10 47 25 NNE 0,0
11.09.2019 11:00:00 11,9 6,4 23 12 43 23 N 0,0
11.09.2019 10:00:00 10,0 7,1 16 9 30 16 NNW 0,1
11.09.2019 09:00:00 8,7 6,2 17 9 29 16 NNW 0,1
11.09.2019 08:00:00 8,2 5,3 8 4 19 10 N -
11.09.2019 07:00:00 9,3 3,8 8 4 27 14 N 0,0
11.09.2019 06:00:00 8,9 3,2 16 8 24 13 N 0,0
11.09.2019 05:00:00 9,3 3,4 10 5 25 14 NNW 0,0
11.09.2019 04:00:00 9,5 3,4 14 8 29 16 N 0,0
11.09.2019 03:00:00 9,0 3,4 14 8 27 15 NNW 0,0
11.09.2019 02:00:00 8,8 3,0 14 8 25 14 NNW -
11.09.2019 01:00:00 9,6 2,9 17 9 33 18 N 0,0
11.09.2019 00:00:00 10,1 1,5 21 11 32 18 NNW 0,0
10.09.2019 23:00:00 11,5 0,2 16 9 46 25 N 0,0
10.09.2019 22:00:00 11,9 -0,7 26 14 56 31 NNE 0,0
10.09.2019 21:00:00 14,3 -0,5 24 13 51 28 N 0,0
10.09.2019 20:00:00 15,3 -1,0 31 17 55 30 N -
10.09.2019 19:00:00 16,3 -1,4 34 18 58 31 NNW 0,0
10.09.2019 18:00:00 17,2 -1,4 35 19 58 32 NNW 0,0
10.09.2019 17:00:00 18,8 0,0 29 16 50 27 NNW 0,0
10.09.2019 16:00:00 17,9 -1,4 29 16 46 25 N 0,0
10.09.2019 15:00:00 18,3 -0,5 25 13 53 29 NNW 0,0
10.09.2019 14:00:00 17,4 -0,7 24 13 50 27 NW -
10.09.2019 13:00:00 18,2 1,3 22 12 46 25 NW 0,0
10.09.2019 12:00:00 16,6 1,1 25 13 47 26 N 0,0
10.09.2019 11:00:00 - - - - - - - -
10.09.2019 10:00:00 - - - - - - - -
10.09.2019 09:00:00 - - - - - - - -
10.09.2019 08:00:00 - - - - - - - -
10.09.2019 07:00:00 - - - - - - - -
10.09.2019 06:00:00 - - - - - - - -
10.09.2019 05:00:00 - - - - - - - -

tt = temperature
td = dewpoint
ff = wind speed
fx = gusts
dd = wind direction
rr = precipitation

Next stations